createdAt,value
2022-08-03T00:02:10.114Z,23.86
2022-08-03T00:05:33.458Z,23.77
2022-08-03T00:08:57.767Z,23.73
2022-08-03T00:12:19.537Z,23.67
2022-08-03T00:15:45.362Z,23.63
2022-08-03T00:19:09.048Z,23.67
2022-08-03T00:22:31.593Z,23.53
2022-08-03T00:25:56.872Z,23.51
2022-08-03T00:29:20.772Z,23.46
2022-08-03T00:32:45.124Z,23.44
2022-08-03T00:36:07.305Z,23.38
2022-08-03T00:39:33.781Z,23.39
2022-08-03T00:42:59.814Z,23.44
2022-08-03T00:46:22.680Z,23.52
2022-08-03T00:49:49.492Z,23.41
2022-08-03T00:53:14.501Z,23.53
2022-08-03T00:56:39.106Z,23.48
2022-08-03T01:00:24.941Z,23.44
2022-08-03T01:03:48.760Z,23.44
2022-08-03T01:07:21.887Z,23.35
2022-08-03T01:11:06.470Z,23.31
2022-08-03T01:14:35.388Z,23.21
2022-08-03T01:18:06.294Z,23.25
2022-08-03T01:21:33.367Z,23.21
2022-08-03T01:25:17.417Z,23.21
2022-08-03T01:28:58.399Z,23.12
2022-08-03T01:32:59.109Z,23.10
2022-08-03T01:36:26.788Z,23.08
2022-08-03T01:39:57.551Z,23.07
2022-08-03T01:44:27.760Z,23.12
2022-08-03T01:47:10.708Z,23.06
2022-08-03T01:50:34.538Z,23.04
2022-08-03T01:53:58.874Z,23.08
2022-08-03T01:57:24.086Z,22.98
2022-08-03T02:00:50.178Z,22.84
2022-08-03T02:04:14.587Z,22.80
2022-08-03T02:07:39.829Z,22.86
2022-08-03T02:11:02.598Z,22.81
2022-08-03T02:14:25.012Z,22.83
2022-08-03T02:17:48.546Z,22.87
2022-08-03T02:21:15.376Z,22.81
2022-08-03T02:25:00.711Z,22.79
2022-08-03T02:28:32.130Z,22.81
2022-08-03T02:32:00.529Z,22.84
2022-08-03T02:35:28.057Z,22.83
2022-08-03T02:38:53.785Z,23.00
2022-08-03T02:42:18.865Z,23.01
2022-08-03T02:45:54.459Z,22.91
2022-08-03T02:49:40.583Z,22.74
2022-08-03T02:53:02.085Z,22.60
2022-08-03T02:56:25.727Z,22.77
2022-08-03T02:59:47.830Z,22.84
2022-08-03T03:03:11.169Z,22.88
2022-08-03T03:06:35.710Z,22.96
2022-08-03T03:10:02.270Z,23.08
2022-08-03T03:13:24.401Z,23.00
2022-08-03T03:16:57.671Z,22.97
2022-08-03T03:20:29.303Z,22.87
2022-08-03T03:23:52.637Z,22.73
2022-08-03T03:27:16.820Z,22.67
2022-08-03T03:30:38.727Z,22.59
2022-08-03T03:34:05.156Z,22.42
2022-08-03T03:37:28.447Z,22.35
2022-08-03T03:40:50.342Z,22.29
2022-08-03T03:44:12.080Z,22.11
2022-08-03T03:47:37.054Z,22.04
2022-08-03T03:51:03.380Z,22.06
2022-08-03T03:54:25.507Z,22.01
2022-08-03T03:57:51.059Z,22.06
2022-08-03T04:01:15.584Z,22.06
2022-08-03T04:04:58.485Z,22.04
2022-08-03T04:08:40.916Z,22.01
2022-08-03T04:12:07.088Z,22.08
2022-08-03T04:15:29.445Z,22.12
2022-08-03T04:19:06.143Z,22.04
2022-08-03T04:22:32.013Z,22.06
2022-08-03T04:25:56.211Z,22.38
2022-08-03T04:29:19.597Z,22.48
2022-08-03T04:32:45.896Z,22.53
2022-08-03T04:36:09.553Z,22.52
2022-08-03T04:39:32.177Z,22.52
2022-08-03T04:42:58.550Z,22.57
2022-08-03T04:46:26.140Z,22.81
2022-08-03T04:49:51.801Z,23.00
2022-08-03T04:53:14.615Z,23.19
2022-08-03T04:56:36.440Z,23.45
2022-08-03T05:00:04.137Z,23.58
2022-08-03T05:03:28.228Z,23.86
2022-08-03T05:06:55.160Z,23.84
2022-08-03T05:10:18.678Z,24.09
2022-08-03T05:13:40.219Z,24.32
2022-08-03T05:17:07.072Z,24.35
2022-08-03T05:20:28.599Z,24.58
2022-08-03T05:23:50.417Z,24.76
2022-08-03T05:27:17.492Z,24.83
2022-08-03T05:30:42.161Z,25.00
2022-08-03T05:34:03.881Z,25.15
2022-08-03T05:37:25.438Z,25.28
2022-08-03T05:40:57.423Z,25.40
2022-08-03T05:44:28.741Z,25.37
2022-08-03T05:47:56.117Z,25.53
2022-08-03T05:51:18.854Z,25.71
2022-08-03T05:54:56.917Z,25.74
2022-08-03T05:58:19.359Z,25.88
2022-08-03T06:01:40.938Z,25.91
2022-08-03T06:05:03.206Z,26.05
2022-08-03T06:08:27.238Z,26.25
2022-08-03T06:11:48.812Z,26.44
2022-08-03T06:15:11.691Z,26.57
2022-08-03T06:18:35.935Z,26.60
2022-08-03T06:21:57.490Z,26.74
2022-08-03T06:25:21.152Z,26.76
2022-08-03T06:28:51.424Z,26.74
2022-08-03T06:32:18.869Z,26.61
2022-08-03T06:35:46.801Z,26.61
2022-08-03T06:39:17.590Z,26.67
2022-08-03T06:42:44.132Z,26.46
2022-08-03T06:46:08.459Z,26.85
2022-08-03T06:49:32.555Z,27.21
2022-08-03T06:52:54.314Z,27.36
2022-08-03T06:56:23.143Z,27.32
2022-08-03T07:00:09.252Z,27.56
2022-08-03T07:03:30.588Z,27.52
2022-08-03T07:06:52.485Z,27.60
2022-08-03T07:10:16.154Z,27.71
2022-08-03T07:13:41.324Z,28.08
2022-08-03T07:17:11.779Z,27.94
2022-08-03T07:20:40.865Z,27.74
2022-08-03T07:24:02.520Z,27.69
2022-08-03T07:27:28.480Z,27.38
2022-08-03T07:30:50.124Z,27.73
2022-08-03T07:34:11.879Z,27.86
2022-08-03T07:37:33.634Z,28.02
2022-08-03T07:40:59.592Z,28.44
2022-08-03T07:44:21.234Z,28.72
2022-08-03T07:47:42.992Z,28.96
2022-08-03T07:51:17.417Z,28.72
2022-08-03T07:54:41.295Z,28.97
2022-08-03T07:58:07.762Z,28.90
2022-08-03T08:01:30.110Z,29.04
2022-08-03T08:05:01.006Z,29.03
2022-08-03T08:08:25.504Z,29.31
2022-08-03T08:11:49.631Z,29.65
2022-08-03T08:15:13.467Z,29.23
2022-08-03T08:18:37.777Z,29.30
2022-08-03T08:22:02.534Z,29.52
2022-08-03T08:25:24.680Z,29.28
2022-08-03T08:28:46.397Z,28.87
2022-08-03T08:32:08.023Z,28.29
2022-08-03T08:35:31.821Z,29.03
2022-08-03T08:38:55.799Z,29.51
2022-08-03T08:42:19.916Z,30.19
2022-08-03T08:45:41.792Z,30.16
2022-08-03T08:49:07.488Z,30.28
2022-08-03T08:52:35.860Z,29.92
2022-08-03T08:56:02.245Z,29.25
2022-08-03T08:59:27.217Z,29.10
2022-08-03T09:03:09.164Z,29.54
2022-08-03T09:06:33.228Z,29.96
2022-08-03T09:10:08.297Z,30.79
2022-08-03T09:13:37.725Z,30.64
2022-08-03T09:17:03.633Z,30.91
2022-08-03T09:20:29.394Z,30.63
2022-08-03T09:24:03.288Z,31.41
2022-08-03T09:27:28.798Z,31.77
2022-08-03T09:31:00.127Z,32.01
2022-08-03T09:34:25.893Z,31.41
2022-08-03T09:38:14.085Z,31.03
2022-08-03T09:41:35.906Z,30.61
2022-08-03T09:45:00.621Z,31.23
2022-08-03T09:48:24.602Z,31.09
2022-08-03T09:52:32.116Z,30.72
2022-08-03T09:56:35.002Z,30.67
2022-08-03T09:59:14.144Z,30.95
2022-08-03T10:02:39.698Z,31.02
2022-08-03T10:06:19.698Z,31.61
2022-08-03T10:09:57.551Z,32.31
2022-08-03T10:13:20.070Z,32.74
2022-08-03T10:16:41.602Z,32.66
2022-08-03T10:20:06.812Z,33.15
2022-08-03T10:23:33.449Z,33.69
2022-08-03T10:27:09.473Z,34.17
2022-08-03T10:30:35.438Z,34.31
2022-08-03T10:33:59.360Z,34.16
2022-08-03T10:37:26.091Z,33.57
2022-08-03T10:40:55.930Z,33.58
2022-08-03T10:44:24.420Z,32.73
2022-08-03T10:47:53.149Z,32.52
2022-08-03T10:51:19.906Z,32.29
2022-08-03T10:55:01.220Z,31.85
2022-08-03T10:58:53.318Z,31.00
2022-08-03T11:02:41.647Z,30.99
2022-08-03T11:06:24.740Z,31.49
2022-08-03T11:09:50.831Z,31.76
2022-08-03T11:13:17.006Z,31.91
2022-08-03T11:16:43.516Z,31.37
2022-08-03T11:20:06.226Z,31.12
2022-08-03T11:24:04.942Z,31.03
2022-08-03T11:27:30.701Z,31.26
2022-08-03T11:30:53.383Z,31.87
2022-08-03T11:34:16.705Z,32.07
2022-08-03T11:38:05.024Z,32.40
2022-08-03T11:41:45.538Z,32.73
2022-08-03T11:45:10.630Z,33.08
2022-08-03T11:48:40.045Z,32.96
2022-08-03T11:52:01.677Z,32.91
2022-08-03T11:55:28.995Z,33.07
2022-08-03T11:59:14.321Z,33.14
2022-08-03T12:02:39.035Z,33.21
2022-08-03T12:06:12.863Z,33.27
2022-08-03T12:09:36.219Z,32.86
2022-08-03T12:12:59.401Z,32.66
2022-08-03T12:16:25.148Z,32.14
2022-08-03T12:19:48.992Z,31.81
2022-08-03T12:23:13.236Z,31.92
2022-08-03T12:26:59.317Z,31.81
2022-08-03T12:30:23.866Z,32.01
2022-08-03T12:34:01.920Z,31.66
2022-08-03T12:37:25.880Z,31.69
2022-08-03T12:40:58.803Z,31.57
2022-08-03T12:44:30.068Z,31.88
2022-08-03T12:48:10.955Z,31.85
2022-08-03T12:51:58.015Z,32.24
2022-08-03T12:55:23.026Z,32.24
2022-08-03T12:58:44.570Z,32.40
2022-08-03T13:02:18.430Z,32.43
2022-08-03T13:05:47.261Z,32.15
2022-08-03T13:09:11.301Z,31.85
2022-08-03T13:12:36.218Z,31.82
2022-08-03T13:16:00.460Z,31.95
2022-08-03T13:19:22.133Z,31.73
2022-08-03T13:22:47.420Z,31.63
2022-08-03T13:26:12.035Z,31.49
2022-08-03T13:29:34.787Z,31.39
2022-08-03T13:32:58.267Z,31.08
2022-08-03T13:36:20.671Z,31.12
2022-08-03T13:39:59.800Z,31.46
2022-08-03T13:43:24.419Z,31.80
2022-08-03T13:46:47.041Z,31.99
2022-08-03T13:50:11.740Z,32.02
2022-08-03T13:53:33.438Z,32.25
2022-08-03T13:56:57.820Z,32.32
2022-08-03T14:00:27.226Z,32.48
2022-08-03T14:03:56.516Z,32.45
2022-08-03T14:07:18.434Z,32.60
2022-08-03T14:10:43.218Z,32.63
2022-08-03T14:14:04.786Z,32.67
2022-08-03T14:17:26.503Z,32.51
2022-08-03T14:21:11.738Z,32.57
2022-08-03T14:24:35.795Z,32.36
2022-08-03T14:27:57.478Z,31.99
2022-08-03T14:32:11.859Z,32.22
2022-08-03T14:35:01.670Z,32.35
2022-08-03T14:38:25.817Z,32.51
2022-08-03T14:41:49.970Z,32.69
2022-08-03T14:45:20.516Z,32.74
2022-08-03T14:50:24.961Z,32.53
2022-08-03T14:52:28.736Z,32.49
2022-08-03T14:55:54.898Z,32.52
2022-08-03T14:59:18.707Z,32.62
2022-08-03T15:02:40.280Z,32.62
2022-08-03T15:06:01.872Z,32.37
2022-08-03T15:09:25.769Z,31.97
2022-08-03T15:12:49.784Z,31.88
2022-08-03T15:16:13.653Z,31.97
2022-08-03T15:20:03.628Z,31.98
2022-08-03T15:23:19.659Z,31.91
2022-08-03T15:26:44.197Z,31.59
2022-08-03T15:30:10.148Z,31.49
2022-08-03T15:33:35.223Z,31.41
2022-08-03T15:36:56.976Z,31.33
2022-08-03T15:40:21.033Z,31.29
2022-08-03T15:43:47.526Z,31.32
2022-08-03T15:47:09.506Z,31.33
2022-08-03T15:50:34.984Z,31.44
2022-08-03T15:53:57.463Z,31.54
2022-08-03T15:57:19.672Z,31.59
2022-08-03T16:00:42.591Z,31.60
2022-08-03T16:04:04.495Z,31.59
2022-08-03T16:08:02.502Z,31.54
2022-08-03T16:11:25.821Z,31.47
2022-08-03T16:14:53.731Z,31.43
2022-08-03T16:18:18.639Z,31.41
2022-08-03T16:21:48.394Z,31.34
2022-08-03T16:25:16.105Z,31.37
2022-08-03T16:28:38.757Z,31.33
2022-08-03T16:32:09.404Z,31.30
2022-08-03T16:35:31.350Z,31.29
2022-08-03T16:38:52.946Z,31.33
2022-08-03T16:42:16.879Z,31.29
2022-08-03T16:45:43.294Z,31.30
2022-08-03T16:49:07.333Z,31.23
2022-08-03T16:52:28.901Z,31.18
2022-08-03T16:55:53.515Z,31.16
2022-08-03T16:59:17.891Z,31.09
2022-08-03T17:02:48.304Z,31.06
2022-08-03T17:06:10.106Z,31.05
2022-08-03T17:09:38.904Z,30.98
2022-08-03T17:13:02.848Z,30.91
2022-08-03T17:16:27.019Z,30.84
2022-08-03T17:19:54.182Z,30.76
2022-08-03T17:23:35.205Z,30.72
2022-08-03T17:27:02.664Z,30.69
2022-08-03T17:30:44.205Z,30.60
2022-08-03T17:34:10.790Z,30.54
2022-08-03T17:37:58.169Z,30.49
2022-08-03T17:41:19.738Z,30.44
2022-08-03T17:44:46.989Z,30.41
2022-08-03T17:48:08.942Z,30.37
2022-08-03T17:51:53.129Z,30.31
2022-08-03T17:55:55.587Z,30.21
2022-08-03T17:59:09.972Z,30.14
2022-08-03T18:02:50.276Z,30.09
2022-08-03T18:06:15.851Z,29.99
2022-08-03T18:10:06.453Z,29.95
2022-08-03T18:13:57.943Z,29.83
2022-08-03T18:17:54.557Z,29.72
2022-08-03T18:21:17.019Z,29.59
2022-08-03T18:24:41.362Z,29.52
2022-08-03T18:28:06.104Z,29.42
2022-08-03T18:31:59.682Z,29.34
2022-08-03T18:35:15.105Z,29.24
2022-08-03T18:38:39.864Z,29.18
2022-08-03T18:42:02.789Z,29.13
2022-08-03T18:45:57.158Z,29.08
2022-08-03T18:49:19.707Z,28.97
2022-08-03T18:53:00.653Z,28.86
2022-08-03T18:56:40.612Z,28.73
2022-08-03T19:00:14.482Z,28.62
2022-08-03T19:03:43.530Z,28.49
2022-08-03T19:07:11.896Z,28.39
2022-08-03T19:10:44.172Z,28.21
2022-08-03T19:14:28.424Z,28.15
2022-08-03T19:17:52.924Z,28.01
2022-08-03T19:21:16.398Z,28.00
2022-08-03T19:24:47.758Z,27.91
2022-08-03T19:28:09.440Z,27.80
2022-08-03T19:31:35.433Z,27.73
2022-08-03T19:35:02.254Z,27.66
2022-08-03T19:38:28.802Z,27.66
2022-08-03T19:41:57.115Z,27.67
2022-08-03T19:46:04.747Z,27.54
2022-08-03T19:50:05.798Z,27.42
2022-08-03T19:53:14.228Z,27.32
2022-08-03T19:56:42.188Z,27.32
2022-08-03T20:00:12.649Z,27.38
2022-08-03T20:03:43.298Z,27.35
2022-08-03T20:07:05.681Z,27.32
2022-08-03T20:10:32.163Z,27.36
2022-08-03T20:13:54.945Z,27.31
2022-08-03T20:17:16.455Z,27.22
2022-08-03T20:20:49.244Z,27.14
2022-08-03T20:24:24.667Z,27.11
2022-08-03T20:28:07.919Z,27.12
2022-08-03T20:31:36.153Z,27.15
2022-08-03T20:34:58.634Z,27.15
2022-08-03T20:38:20.391Z,27.16
2022-08-03T20:41:48.964Z,27.14
2022-08-03T20:45:15.159Z,27.18
2022-08-03T20:48:54.127Z,27.14
2022-08-03T20:52:18.875Z,27.06
2022-08-03T20:55:48.048Z,26.97
2022-08-03T20:59:28.800Z,26.97
2022-08-03T21:02:52.127Z,26.94
2022-08-03T21:06:19.282Z,26.81
2022-08-03T21:13:12.580Z,26.78
2022-08-03T21:13:48.557Z,26.58
2022-08-03T21:17:31.292Z,26.41
2022-08-03T21:21:03.182Z,26.35
2022-08-03T21:24:30.497Z,26.28
2022-08-03T21:27:52.087Z,26.12
2022-08-03T21:31:14.251Z,26.16
2022-08-03T21:34:45.549Z,26.18
2022-08-03T21:38:19.507Z,26.18
2022-08-03T21:41:41.214Z,26.28
2022-08-03T21:45:16.907Z,26.15
2022-08-03T21:48:41.522Z,25.93
2022-08-03T21:52:06.189Z,25.88
2022-08-03T21:55:29.049Z,25.91
2022-08-03T21:58:54.807Z,25.91
2022-08-03T22:02:22.808Z,25.93
2022-08-03T22:05:46.213Z,25.82
2022-08-03T22:09:12.683Z,25.80
2022-08-03T22:12:35.281Z,25.80
2022-08-03T22:15:56.960Z,25.75
2022-08-03T22:19:18.525Z,25.80
2022-08-03T22:22:41.076Z,25.64
2022-08-03T22:26:32.189Z,25.62
2022-08-03T22:29:54.088Z,25.41
2022-08-03T22:33:16.193Z,25.28
2022-08-03T22:36:37.822Z,25.24
2022-08-03T22:40:04.478Z,25.22
2022-08-03T22:43:27.067Z,25.16
2022-08-03T22:46:50.890Z,25.10
2022-08-03T22:50:32.690Z,25.06
2022-08-03T22:53:56.281Z,25.00
2022-08-03T22:57:21.665Z,25.10
2022-08-03T23:00:53.791Z,25.06
2022-08-03T23:04:20.711Z,24.80
2022-08-03T23:07:44.170Z,24.69
2022-08-03T23:11:10.734Z,24.75
2022-08-03T23:14:40.598Z,24.73
2022-08-03T23:18:06.355Z,24.68
2022-08-03T23:22:00.428Z,24.64
2022-08-03T23:25:11.501Z,24.71
2022-08-03T23:28:34.807Z,24.71
2022-08-03T23:31:57.509Z,24.65
2022-08-03T23:36:27.840Z,24.58
2022-08-03T23:39:19.663Z,24.44
2022-08-03T23:42:45.374Z,24.40
2022-08-03T23:46:08.294Z,24.31
2022-08-03T23:49:29.866Z,24.42
2022-08-03T23:53:02.834Z,24.35
2022-08-03T23:56:44.327Z,24.41
